Latest Weather Observations for Moranbah Airport

IDQ60801

Issued at 7:02 pm EST Monday 31 August 2015 (issued every 30 minutes, with the page automatically refreshed every 10 minutes)

About weather observations | Map of weather stations | Latest weather observations for QLD | Other Formats
Station Details ID: 034035 Name: MORANBAH AIRPORT Lat: -22.06 Lon: 148.08 Height: 232.2 m
Data from the previous 72 hours. | See also: Recent months at Moranbah Airport
Date/Time
EST
Temp
°C
App
Temp
°C
Dew
Point
Rel
Hum
%
Delta-T
°C
Wind Press
QNH
hPa
Press
MSL
hPa
Rain
since 9 am
mm
Dir
 
Spd
km/h
Gust
km/h
Spd
kts
Gust
kts
31/07:00pm 20.1 16.8 2.5 31 8.3 SSW 9 11 5 6 1015.3 1014.8 0.0
31/06:30pm 21.6 18.0 2.8 29 9.0 S 11 13 6 7 1014.9 1014.4 0.0
31/06:00pm 23.7 20.4 2.5 25 10.2 SW 9 9 5 5 1014.7 1014.2 0.0
31/05:30pm 26.2 22.9 2.2 21 11.7 WSW 9 15 5 8 1014.5 1014.0 0.0
31/05:00pm 26.7 23.4 2.6 21 11.9 SW 9 13 5 7 1014.2 1013.7 0.0
31/04:30pm 27.3 24.2 3.7 22 11.9 WSW 9 15 5 8 1014.0 1013.5 0.0
31/04:00pm 27.3 24.4 4.4 23 11.7 NNW 9 15 5 8 1013.9 1013.4 0.0
31/03:30pm 26.2 23.6 4.1 24 11.2 SSW 7 15 4 8 1014.1 1013.6 0.0
31/03:00pm 26.6 24.0 4.4 24 11.3 S 7 15 4 8 1014.5 1014.0 0.0
31/02:30pm 25.9 23.6 5.5 27 10.6 NE 7 11 4 6 1015.0 1014.5 0.0
31/02:00pm 25.7 22.9 5.3 27 10.5 ENE 9 15 5 8 1015.4 1014.9 0.0
31/01:30pm 25.6 23.7 6.7 30 10.0 NW 6 11 3 6 1016.1 1015.6 0.0
31/01:00pm 25.3 23.5 7.0 31 9.7 ENE 6 9 3 5 1016.6 1016.1 0.0
31/12:30pm 24.4 21.9 6.6 32 9.3 WNW 9 15 5 8 1017.1 1016.5 0.0
31/12:00pm 23.0 20.5 6.7 35 8.5 E 9 19 5 10 1017.5 1017.0 0.0
31/11:30am 22.3 18.9 6.1 35 8.3 SE 13 19 7 10 1018.1 1017.6 0.0
31/11:00am 21.9 18.2 6.2 36 8.0 E 15 22 8 12 1018.7 1018.2 0.0
31/10:30am 21.7 17.6 6.0 36 8.0 E 17 28 9 15 1019.3 1018.8 0.0
31/10:00am 20.7 15.9 5.5 37 7.6 E 20 26 11 14 1019.7 1019.2 0.0
31/09:30am 20.1 14.8 5.0 37 7.5 ESE 22 32 12 17 1019.6 1019.1 0.0
31/09:00am 19.2 13.6 5.6 41 6.7 ESE 24 30 13 16 1019.4 1018.9 0.0
31/08:30am 17.9 12.8 5.8 45 6.0 SE 22 30 12 16 1019.2 1018.7 0.0
31/08:00am 16.8 12.0 7.4 54 4.7 SSE 22 28 12 15 1018.9 1018.4 0.0
31/07:30am 15.0 11.8 8.3 64 3.4 SSE 15 20 8 11 1018.7 1018.2 0.0
31/07:00am 13.1 9.7 7.8 70 2.6 SSE 15 19 8 10 1018.4 1017.9 0.0
31/06:30am 10.4 7.5 8.2 86 1.1 S 13 15 7 8 1018.0 1017.5 0.0
31/06:00am 9.4 7.7 7.7 89 0.8 WNW 6 9 3 5 1017.8 1017.3 0.0
31/05:30am 10.8 8.1 8.9 88 1.0 SE 13 15 7 8 1017.5 1017.0 0.0
31/05:00am 11.0 8.7 8.9 87 1.1 SE 11 13 6 7 1017.3 1016.8 0.0
31/04:30am 11.4 9.6 9.3 87 1.1 SE 9 11 5 6 1017.2 1016.7 0.0
31/04:00am 11.7 9.7 10.1 90 0.8 SE 11 13 6 7 1017.0 1016.4 0.0
31/03:30am 12.0 11.8 10.6 91 0.7 S 2 11 1 6 1016.9 1016.3 0.0
31/03:00am 11.5 11.5 9.9 90 0.8 CALM 0 0 0 0 1016.9 1016.3 0.0
31/02:30am 11.3 11.2 9.4 88 1.0 CALM 0 0 0 0 1017.2 1016.7 0.0
31/02:00am 11.9 11.6 10.1 89 0.9 S 2 7 1 4 1017.5 1017.0 0.0
31/01:30am 12.2 10.5 9.9 86 1.2 SSW 9 9 5 5 1017.6 1017.1 0.0
31/01:00am 13.2 12.2 10.2 82 1.6 S 6 7 3 4 1017.8 1017.3 0.0
31/12:30am 14.0 13.2 11.2 83 1.5 NW 6 9 3 5 1017.9 1017.4 0.0
31/12:00am 13.7 13.9 10.5 81 1.7 CALM 0 9 0 5 1017.9 1017.4 0.0
 
Date/Time
EST
Temp
°C
App
Temp
°C
Dew
Point
Rel
Hum
%
Delta-T
°C
Wind Press
QNH
hPa
Press
MSL
hPa
Rain
since 9 am
mm
Dir
 
Spd
km/h
Gust
km/h
Spd
kts
Gust
kts
30/11:30pm 14.1 13.0 10.1 77 2.1 SE 6 7 3 4 1018.0 1017.5 0.0
30/11:00pm 15.0 12.7 10.6 75 2.3 SE 13 15 7 8 1018.0 1017.5 0.0
30/10:30pm 16.9 14.0 11.0 68 3.2 SE 17 19 9 10 1018.0 1017.5 0.0
30/10:00pm 16.5 14.4 11.2 71 2.9 SE 13 17 7 9 1017.8 1017.3 0.0
30/09:30pm 16.2 15.3 11.2 72 2.7 ESE 7 11 4 6 1017.6 1017.1 0.0
30/09:00pm 17.0 15.0 11.5 70 3.0 ESE 13 13 7 7 1017.4 1016.9 0.0
30/08:30pm 17.4 15.5 11.9 70 3.0 ESE 13 15 7 8 1017.2 1016.7 0.0
30/08:00pm 18.5 17.0 11.8 65 3.7 ESE 11 13 6 7 1016.9 1016.3 0.0
30/07:30pm 19.4 17.7 11.2 59 4.5 SE 11 13 6 7 1016.4 1015.9 0.0
30/07:00pm 20.0 18.8 11.7 59 4.6 SSE 9 11 5 6 1016.1 1015.6 0.0
30/06:30pm 22.2 20.3 10.4 47 6.5 S 11 11 6 6 1015.7 1015.2 0.0
30/06:00pm 22.0 20.1 10.5 48 6.4 S 11 11 6 6 1015.4 1014.9 0.0
30/05:30pm 23.7 21.6 9.7 41 7.7 S 11 15 6 8 1015.2 1014.7 0.0
30/05:00pm 26.1 24.4 9.9 36 9.1 SW 9 17 5 9 1014.9 1014.4 0.0
30/04:30pm 26.2 23.9 10.4 37 8.9 SSW 13 20 7 11 1014.7 1014.2 0.0
30/04:00pm 25.5 24.9 12.4 44 7.6 SE 7 11 4 6 1014.9 1014.4 0.0
30/03:30pm 24.2 23.4 12.8 49 6.6 NE 9 13 5 7 1015.0 1014.5 0.0
30/03:00pm 25.0 23.8 13.9 50 6.6 ENE 13 19 7 10 1015.0 1014.5 0.0
30/02:30pm 25.1 23.2 13.0 47 7.1 ESE 15 22 8 12 1015.4 1014.9 0.0
30/02:00pm 23.9 22.6 13.7 53 6.0 NNE 13 19 7 10 1016.2 1015.7 0.0
30/01:30pm 24.3 22.9 14.4 54 5.9 SE 15 20 8 11 1016.8 1016.2 0.0
30/01:00pm 23.4 23.3 16.0 63 4.5 SE 11 20 6 11 1017.3 1016.8 0.0
30/12:30pm 22.4 21.9 15.0 63 4.4 NE 11 17 6 9 1017.8 1017.3 0.0
30/12:00pm 21.3 21.4 15.6 70 3.4 ENE 9 15 5 8 1018.5 1018.0 0.0
30/11:30am 20.2 20.1 16.0 77 2.5 ENE 11 15 6 8 1019.1 1018.6 0.0
30/11:09am 19.1 20.0 16.0 82 1.9 SE 6 11 3 6 1019.4 1018.9 0.0
30/11:00am 18.8 19.0 16.8 88 1.2 SE 11 17 6 9 1019.5 1019.0 0.0
30/10:30am 18.0 17.6 16.2 89 1.1 SSE 13 17 7 9 1019.5 1019.0 0.0
30/10:00am 18.0 18.0 16.2 89 1.1 ESE 11 15 6 8 1019.6 1019.1 0.0
30/09:30am 17.8 17.1 16.5 92 0.8 SE 15 19 8 10 1019.3 1018.8 0.0
30/09:00am 17.6 17.2 16.3 92 0.8 SE 13 17 7 9 1019.5 1019.0 5.6
30/08:30am 17.8 18.3 16.5 92 0.8 SE 9 13 5 7 1019.5 1019.0 5.6
30/08:00am 17.9 18.0 16.6 92 0.8 E 11 13 6 7 1019.1 1018.6 5.6
30/07:30am 17.7 18.3 16.7 94 0.6 E 9 13 5 7 1018.8 1018.3 5.6
30/07:00am 17.4 17.0 16.3 93 0.7 ESE 13 17 7 9 1018.5 1018.0 5.6
30/06:30am 17.3 16.6 16.3 94 0.6 ESE 15 20 8 11 1017.8 1017.3 5.6
30/06:00am 17.2 18.5 16.2 94 0.6 NE 4 9 2 5 1018.1 1017.6 5.6
30/05:47am 17.3 19.4 16.3 94 0.6 CALM 0 0 0 0 1018.3 1017.8 5.6
30/05:30am 17.3 19.4 16.3 94 0.6 CALM 0 0 0 0 1018.2 1017.7 5.6
30/05:00am 17.2 18.1 16.2 94 0.6 SSE 6 7 3 4 1017.8 1017.3 5.6
30/04:30am 17.3 18.1 16.3 94 0.6 E 7 9 4 5 1017.5 1017.0 5.6
30/04:00am 17.4 18.2 16.4 94 0.6 SSE 7 11 4 6 1017.7 1017.2 5.4
30/03:43am 17.3 17.7 16.3 94 0.6 SSW 9 15 5 8 1017.8 1017.3 5.2
30/03:30am 17.3 17.3 16.2 93 0.7 SSW 11 15 6 8 1017.8 1017.3 5.2
30/03:00am 17.4 17.1 16.4 94 0.6 SSE 13 15 7 8 1017.8 1017.3 5.2
30/02:30am 17.4 18.2 16.3 93 0.7 SE 7 11 4 6 1017.9 1017.4 4.8
30/02:00am 17.4 17.4 16.3 93 0.7 ESE 11 15 6 8 1018.0 1017.5 4.4
30/01:50am 17.4 17.0 16.3 93 0.7 SE 13 15 7 8 1018.1 1017.6 4.4
30/01:30am 17.3 16.1 16.2 93 0.7 ESE 17 22 9 12 1018.3 1017.8 4.4
30/01:00am 17.5 16.3 16.2 92 0.8 SE 17 22 9 12 1018.6 1018.1 4.2
30/12:30am 17.8 17.1 16.3 91 0.9 SE 15 19 8 10 1019.0 1018.5 3.2
30/12:00am 18.1 17.4 16.3 89 1.1 SE 15 24 8 13 1019.1 1018.6 2.8
 
Date/Time
EST
Temp
°C
App
Temp
°C
Dew
Point
Rel
Hum
%
Delta-T
°C
Wind Press
QNH
hPa
Press
MSL
hPa
Rain
since 9 am
mm
Dir
 
Spd
km/h
Gust
km/h
Spd
kts
Gust
kts
29/11:30pm 18.2 18.3 16.5 90 1.0 SE 11 17 6 9 1019.1 1018.6 2.4
29/11:00pm 18.2 18.0 16.7 91 0.9 SE 13 20 7 11 1019.1 1018.6 2.4
29/10:30pm 18.3 17.8 16.8 91 0.9 ESE 15 22 8 12 1018.9 1018.4 2.4
29/10:00pm 18.5 18.4 17.0 91 0.9 ESE 13 17 7 9 1019.1 1018.6 2.4
29/09:30pm 18.6 18.9 17.1 91 0.9 ESE 11 13 6 7 1019.1 1018.6 2.4
29/09:20pm 18.8 20.0 17.3 91 0.9 SE 7 11 4 6 1018.9 1018.4 2.4
29/09:04pm 18.8 18.4 17.1 90 1.0 SSE 15 22 8 12 1019.1 1018.6 2.0
29/09:00pm 18.9 18.1 17.0 89 1.2 S 17 22 9 12 1019.1 1018.6 1.0
29/08:30pm 19.6 17.2 16.3 81 2.0 S 24 37 13 20 1018.2 1017.7 0.0
29/08:00pm 24.0 22.9 14.4 55 5.7 E 13 19 7 10 1017.0 1016.4 0.0
29/07:30pm 24.3 22.5 14.4 54 5.9 ENE 17 22 9 12 1016.3 1015.8 0.0
29/07:00pm 24.6 22.7 14.1 52 6.3 NE 17 24 9 13 1016.0 1015.5 0.0
29/06:30pm 25.7 23.4 12.9 45 7.5 NNE 17 20 9 11 1015.9 1015.4 0.0
29/06:00pm 26.5 24.7 12.2 41 8.3 ENE 13 15 7 8 1015.5 1015.0 0.0
29/05:30pm 27.8 25.9 11.8 37 9.3 E 13 15 7 8 1015.4 1014.9 0.0
29/05:00pm 28.2 26.3 11.7 36 9.6 ENE 13 17 7 9 1015.3 1014.8 0.0
29/04:30pm 28.6 27.2 10.8 33 10.2 NE 9 15 5 8 1015.3 1014.8 0.0
29/04:00pm 28.7 27.3 10.8 33 10.3 NNE 9 15 5 8 1015.3 1014.8 0.0
29/03:30pm 28.6 28.2 11.2 34 10.1 NNE 4 11 2 6 1015.3 1014.8 0.0
29/03:00pm 29.0 27.4 11.6 34 10.1 NW 11 19 6 10 1015.6 1015.1 0.0
29/02:30pm 28.5 26.4 11.1 34 10.0 N 13 20 7 11 1016.0 1015.5 0.0
29/02:00pm 28.6 27.7 11.2 34 10.1 SSE 7 13 4 7 1016.8 1016.2 0.0
29/01:30pm 27.8 26.5 11.4 36 9.5 NW 9 15 5 8 1017.5 1017.0 0.0
29/01:00pm 28.4 26.8 11.5 35 9.8 NNW 11 19 6 10 1018.0 1017.5 0.0
29/12:30pm 27.2 25.7 12.0 38 8.9 NNW 11 17 6 9 1018.7 1018.2 0.0
29/12:00pm 27.3 25.2 12.5 40 8.7 NW 15 24 8 13 1019.4 1018.9 0.0
29/11:30am 26.8 26.0 13.9 45 7.7 NNE 11 19 6 10 1020.1 1019.6 0.0
29/11:00am 25.1 24.0 13.0 47 7.1 ESE 11 19 6 10 1020.6 1020.1 0.0
29/10:30am 24.2 23.6 13.4 51 6.4 WSW 9 19 5 10 1021.1 1020.7 0.0
29/10:00am 23.6 23.1 13.8 54 5.8 NNE 9 13 5 7 1021.2 1020.8 0.0
29/09:30am 22.7 22.7 14.3 59 5.0 E 7 13 4 7 1021.6 1021.1 0.0
29/09:00am 22.1 21.6 15.0 64 4.2 E 11 15 6 8 1021.5 1021.0 0.0
29/08:30am 20.6 20.3 15.4 72 3.1 E 11 15 6 8 1021.6 1021.1 0.0
29/08:00am 19.4 18.9 14.9 75 2.6 ESE 11 15 6 8 1021.5 1021.0 0.0
29/07:30am 18.0 17.0 14.5 80 2.0 SE 13 15 7 8 1021.0 1020.6 0.0
29/07:00am 17.0 17.2 14.1 83 1.7 S 6 13 3 7 1020.9 1020.5 0.0
29/06:30am 15.7 15.0 13.2 85 1.4 S 9 11 5 6 1020.4 1019.9 0.0
29/06:00am 15.5 14.3 12.8 84 1.5 SE 11 13 6 7 1019.8 1019.3 0.0
29/05:30am 15.4 14.8 12.2 81 1.8 S 7 9 4 5 1019.7 1019.2 0.0
29/05:00am 15.8 15.2 11.6 76 2.3 S 6 7 3 4 1019.4 1018.9 0.0
29/04:30am 17.1 16.6 12.8 76 2.4 SSE 7 9 4 5 1019.3 1018.8 0.0
29/04:00am 17.8 17.6 13.1 74 2.7 E 6 9 3 5 1019.4 1018.9 0.0
29/03:30am 18.1 18.0 13.4 74 2.7 S 6 7 3 4 1019.5 1019.0 0.0
29/03:00am 17.9 17.6 13.4 75 2.6 SE 7 9 4 5 1019.4 1018.9 0.0
29/02:30am 18.3 17.0 13.6 74 2.7 ESE 13 17 7 9 1019.3 1018.8 0.0
29/02:00am 18.3 17.0 13.8 75 2.6 SE 13 15 7 8 1019.6 1019.1 0.0
29/01:30am 17.7 16.2 13.0 74 2.7 SE 13 15 7 8 1019.7 1019.2 0.0
29/01:00am 18.9 17.5 13.5 71 3.1 E 13 15 7 8 1019.8 1019.3 0.0
29/12:30am 19.4 18.4 13.3 68 3.5 ESE 11 13 6 7 1020.2 1019.7 0.0
29/12:00am 19.7 18.9 12.9 65 3.9 SE 9 11 5 6 1020.2 1019.7 0.0
 
Date/Time
EST
Temp
°C
App
Temp
°C
Dew
Point
Rel
Hum
%
Delta-T
°C
Wind Press
QNH
hPa
Press
MSL
hPa
Rain
since 9 am
mm
Dir
 
Spd
km/h
Gust
km/h
Spd
kts
Gust
kts
28/11:30pm 20.8 20.8 13.5 63 4.2 NE 6 7 3 4 1020.2 1019.7 0.0
28/11:00pm 21.0 20.8 13.7 63 4.2 NE 7 9 4 5 1020.0 1019.5 0.0
28/10:30pm 21.3 21.1 13.7 62 4.4 NNE 7 11 4 6 1020.2 1019.7 0.0
28/10:00pm 21.1 20.9 13.5 62 4.4 E 7 9 4 5 1020.1 1019.6 0.0
28/09:30pm 20.7 20.0 13.2 62 4.3 E 9 11 5 6 1020.0 1019.5 0.0
28/09:00pm 22.0 20.8 13.9 60 4.7 NE 13 15 7 8 1020.0 1019.5 0.0
28/08:30pm 22.5 19.6 14.1 59 5.0 ENE 22 30 12 16 1019.5 1019.0 0.0
28/08:00pm 23.1 20.3 14.4 58 5.2 ENE 22 28 12 15 1018.8 1018.3 0.0
28/07:30pm 23.8 21.6 14.5 56 5.6 NE 19 28 10 15 1018.4 1017.9 0.0

Other Formats:

Comma delimited format used in spreadsheet applications
http://www.bom.gov.au/fwo/IDQ60801/IDQ60801.94397.axf

JavaScript Object Notation format (JSON) in row-major order
http://www.bom.gov.au/fwo/IDQ60801/IDQ60801.94397.json